createdAt,value
2019-04-29T00:01:39.796Z,10.20
2019-04-29T00:06:42.518Z,6.53
2019-04-29T00:11:45.439Z,11.60
2019-04-29T00:16:55.110Z,6.57
2019-04-29T00:21:59.055Z,6.60
2019-04-29T00:27:01.891Z,4.80
2019-04-29T00:32:05.006Z,6.47
2019-04-29T00:37:29.946Z,6.80
2019-04-29T00:42:44.416Z,5.10
2019-04-29T00:47:47.118Z,5.30
2019-04-29T00:52:50.004Z,6.57
2019-04-29T00:57:52.779Z,5.13
2019-04-29T01:02:55.616Z,7.83
2019-04-29T01:07:58.331Z,9.30
2019-04-29T01:13:01.158Z,5.47
2019-04-29T01:18:04.012Z,3.60
2019-04-29T01:23:06.734Z,7.83
2019-04-29T01:28:16.887Z,5.80
2019-04-29T01:33:19.598Z,9.00
2019-04-29T01:38:22.355Z,8.87
2019-04-29T01:43:44.709Z,7.00
2019-04-29T01:48:47.546Z,9.03
2019-04-29T01:53:50.271Z,6.67
2019-04-29T01:58:53.010Z,7.00
2019-04-29T02:03:55.762Z,5.60
2019-04-29T02:08:58.622Z,4.50
2019-04-29T02:14:01.352Z,4.80
2019-04-29T02:19:04.092Z,7.70
2019-04-29T02:24:12.295Z,5.17
2019-04-29T02:29:15.024Z,6.80
2019-04-29T02:34:17.737Z,7.87
2019-04-29T02:39:40.097Z,6.87
2019-04-29T02:44:42.955Z,6.80
2019-04-29T02:49:45.695Z,10.33
2019-04-29T02:54:50.217Z,9.90
2019-04-29T02:59:57.415Z,5.67
2019-04-29T03:05:28.838Z,8.70
2019-04-29T03:10:31.588Z,8.67
2019-04-29T03:15:37.438Z,17.80
2019-04-29T03:21:04.044Z,14.70
2019-04-29T03:26:06.768Z,15.70
2019-04-29T03:31:09.493Z,16.47
2019-04-29T03:36:12.226Z,16.13
2019-04-29T03:41:15.086Z,21.77
2019-04-29T03:46:17.823Z,17.57
2019-04-29T03:51:20.547Z,20.80
2019-04-29T03:56:23.289Z,19.20
2019-04-29T04:01:34.321Z,19.20
2019-04-29T04:06:56.789Z,19.57
2019-04-29T04:11:59.512Z,17.30
2019-04-29T04:17:33.627Z,19.07
2019-04-29T04:22:46.806Z,24.50
2019-04-29T04:27:49.695Z,17.40
2019-04-29T04:32:52.509Z,19.80
2019-04-29T04:37:55.258Z,25.90
2019-04-29T04:42:58.094Z,19.23
2019-04-29T04:48:01.060Z,21.50
2019-04-29T04:53:04.119Z,20.17
2019-04-29T04:58:06.863Z,18.60
2019-04-29T05:03:09.590Z,18.67
2019-04-29T05:08:12.298Z,23.07
2019-04-29T05:13:27.461Z,23.97
2019-04-29T05:18:19.668Z,23.47
2019-04-29T05:23:22.498Z,19.43
2019-04-29T05:28:25.300Z,20.00
2019-04-29T05:33:28.015Z,23.50
2019-04-29T05:38:37.768Z,25.97
2019-04-29T05:44:02.939Z,16.37
2019-04-29T05:49:08.874Z,18.50
2019-04-29T05:54:12.771Z,20.33
2019-04-29T05:59:15.493Z,23.77
2019-04-29T06:04:18.370Z,20.67
2019-04-29T06:09:21.195Z,23.97
2019-04-29T06:14:23.949Z,24.80
2019-04-29T06:19:26.669Z,19.63
2019-04-29T06:24:29.522Z,22.17
2019-04-29T06:29:32.251Z,27.10
2019-04-29T06:34:35.528Z,22.37
2019-04-29T06:39:39.603Z,21.40
2019-04-29T06:44:44.442Z,15.50
2019-04-29T06:49:47.102Z,16.20
2019-04-29T06:54:49.830Z,15.57
2019-04-29T06:59:54.747Z,24.23
2019-04-29T07:04:57.212Z,13.43
2019-04-29T07:09:59.938Z,14.37
2019-04-29T07:15:03.142Z,14.30
2019-04-29T07:20:05.937Z,11.33
2019-04-29T07:25:08.907Z,10.57
2019-04-29T07:30:11.737Z,6.57
2019-04-29T07:35:14.715Z,6.17
2019-04-29T07:40:17.944Z,9.30
2019-04-29T07:45:58.920Z,9.50
2019-04-29T07:51:04.192Z,11.10
2019-04-29T07:56:06.339Z,11.63
2019-04-29T08:01:09.209Z,10.17
2019-04-29T08:06:12.037Z,7.20
2019-04-29T08:11:14.762Z,10.23
2019-04-29T08:16:18.595Z,11.00
2019-04-29T08:21:21.528Z,5.63
2019-04-29T08:26:24.255Z,7.83
2019-04-29T08:31:26.987Z,4.33
2019-04-29T08:36:29.726Z,5.10
2019-04-29T08:41:32.478Z,3.73
2019-04-29T08:46:51.572Z,3.90
2019-04-29T08:51:49.988Z,3.80
2019-04-29T08:57:02.735Z,4.27
2019-04-29T09:01:57.340Z,5.43
2019-04-29T09:07:11.977Z,7.43
2019-04-29T09:12:04.728Z,4.40
2019-04-29T09:17:20.285Z,5.00
2019-04-29T09:22:19.289Z,4.93
2019-04-29T09:27:22.138Z,8.30
2019-04-29T09:32:25.566Z,6.93
2019-04-29T09:37:28.765Z,8.73
2019-04-29T09:43:14.779Z,11.10
2019-04-29T09:48:08.915Z,10.73
2019-04-29T09:53:12.192Z,16.13
2019-04-29T09:58:14.923Z,49.93
2019-04-29T10:03:32.061Z,20.40
2019-04-29T10:08:34.807Z,18.90
2019-04-29T10:13:37.593Z,20.63
2019-04-29T10:18:45.790Z,23.47
2019-04-29T10:23:48.559Z,28.80
2019-04-29T10:28:56.290Z,27.77
2019-04-29T10:33:59.030Z,29.77
2019-04-29T10:39:22.617Z,26.97
2019-04-29T10:44:44.373Z,31.77
2019-04-29T10:49:52.579Z,30.77
2019-04-29T10:54:56.724Z,32.00
2019-04-29T11:00:07.596Z,29.00
2019-04-29T11:05:44.583Z,35.27
2019-04-29T11:10:46.285Z,26.63
2019-04-29T11:15:50.968Z,29.00
2019-04-29T11:20:55.550Z,22.80
2019-04-29T11:26:10.109Z,22.17
2019-04-29T11:31:13.992Z,30.07
2019-04-29T11:36:21.760Z,29.43
2019-04-29T11:41:26.839Z,22.30
2019-04-29T11:46:34.846Z,22.80
2019-04-29T11:52:07.319Z,28.27
2019-04-29T11:56:45.775Z,31.60
2019-04-29T12:02:08.731Z,33.17
2019-04-29T12:07:11.777Z,30.70
2019-04-29T12:12:15.114Z,23.70
2019-04-29T12:17:37.478Z,24.67
2019-04-29T12:22:48.134Z,24.83
2019-04-29T12:27:44.934Z,30.77
2019-04-29T12:32:56.787Z,30.40
2019-04-29T12:38:17.081Z,26.80
2019-04-29T12:43:59.168Z,26.60
2019-04-29T12:48:59.300Z,35.27
2019-04-29T12:54:02.048Z,28.70
2019-04-29T12:59:05.649Z,32.67
2019-04-29T13:04:27.887Z,30.40
2019-04-29T13:09:36.124Z,33.67
2019-04-29T13:14:47.182Z,27.73
2019-04-29T13:20:02.260Z,30.10
2019-04-29T13:24:59.951Z,35.23
2019-04-29T13:30:07.297Z,22.57
2019-04-29T13:35:12.626Z,25.87
2019-04-29T13:40:15.486Z,23.90
2019-04-29T13:45:24.971Z,23.80
2019-04-29T13:50:39.312Z,24.90
2019-04-29T13:55:48.086Z,23.53
2019-04-29T14:00:59.355Z,25.50
2019-04-29T14:06:04.460Z,38.20
2019-04-29T14:11:05.052Z,21.20
2019-04-29T14:16:11.963Z,22.73
2019-04-29T14:21:12.615Z,25.70
2019-04-29T14:26:15.348Z,21.00
2019-04-29T14:31:18.760Z,22.80
2019-04-29T14:36:24.700Z,21.17
2019-04-29T14:41:29.413Z,21.03
2019-04-29T14:46:45.553Z,19.90
2019-04-29T14:51:48.297Z,13.27
2019-04-29T14:56:51.148Z,14.87
2019-04-29T15:02:03.563Z,12.93
2019-04-29T15:07:06.353Z,14.33
2019-04-29T15:12:24.001Z,11.93
2019-04-29T15:17:46.720Z,11.83
2019-04-29T15:22:49.533Z,11.10
2019-04-29T15:27:52.279Z,13.67
2019-04-29T15:32:58.084Z,14.57
2019-04-29T15:37:59.653Z,12.33
2019-04-29T15:43:02.394Z,17.23
2019-04-29T15:48:05.122Z,12.97
2019-04-29T15:53:07.851Z,12.30
2019-04-29T15:58:10.817Z,13.30
2019-04-29T16:03:17.680Z,16.60
2019-04-29T16:08:31.220Z,43.93
2019-04-29T16:13:34.035Z,34.40
2019-04-29T16:18:36.771Z,20.00
2019-04-29T16:23:40.340Z,16.07
2019-04-29T16:28:43.134Z,20.30
2019-04-29T16:33:47.409Z,15.47
2019-04-29T16:38:51.360Z,24.00
2019-04-29T16:43:56.330Z,23.57
2019-04-29T16:48:59.168Z,24.60
2019-04-29T16:54:01.940Z,20.37
2019-04-29T16:59:09.288Z,31.50
2019-04-29T17:04:09.512Z,21.90
2019-04-29T17:09:30.689Z,20.03
2019-04-29T17:15:01.158Z,29.90
2019-04-29T17:19:38.203Z,23.63
2019-04-29T17:24:40.927Z,27.20
2019-04-29T17:30:08.758Z,28.67
2019-04-29T17:35:12.789Z,25.73
2019-04-29T17:40:16.964Z,26.50
2019-04-29T17:45:30.607Z,29.40
2019-04-29T17:50:48.076Z,27.70
2019-04-29T17:55:59.109Z,26.17
2019-04-29T18:01:32.046Z,28.37
2019-04-29T18:07:12.329Z,24.33
2019-04-29T18:12:24.729Z,27.37
2019-04-29T18:17:33.245Z,28.33
2019-04-29T18:22:56.906Z,31.33
2019-04-29T18:28:00.307Z,25.93
2019-04-29T18:33:03.370Z,29.73
2019-04-29T18:38:07.446Z,33.90
2019-04-29T18:43:11.352Z,34.00
2019-04-29T18:48:17.104Z,31.83
2019-04-29T18:53:27.787Z,31.43
2019-04-29T18:58:30.520Z,33.30
2019-04-29T19:03:51.619Z,39.90
2019-04-29T19:09:01.267Z,37.30
2019-04-29T19:13:59.007Z,42.97
2019-04-29T19:19:01.976Z,46.03
2019-04-29T19:24:38.845Z,52.30
2019-04-29T19:29:43.267Z,45.47
2019-04-29T19:34:50.234Z,46.63
2019-04-29T19:39:52.501Z,51.80
2019-04-29T19:44:55.630Z,52.57
2019-04-29T19:49:58.464Z,54.40
2019-04-29T19:55:01.874Z,56.37
2019-04-29T20:00:08.737Z,54.70
2019-04-29T20:05:23.877Z,54.17
2019-04-29T20:10:28.487Z,58.27
2019-04-29T20:15:33.963Z,54.83
2019-04-29T20:20:42.783Z,56.40
2019-04-29T20:25:48.167Z,62.10
2019-04-29T20:30:54.888Z,69.73
2019-04-29T20:35:55.999Z,60.27
2019-04-29T20:40:59.703Z,70.60
2019-04-29T20:46:04.441Z,69.37
2019-04-29T20:51:13.289Z,65.27
2019-04-29T20:56:19.590Z,64.00
2019-04-29T21:01:25.515Z,64.93
2019-04-29T21:06:28.561Z,63.43
2019-04-29T21:11:45.614Z,66.90
2019-04-29T21:16:49.151Z,65.03
2019-04-29T21:21:51.897Z,62.03
2019-04-29T21:26:55.020Z,66.53
2019-04-29T21:32:01.612Z,74.53
2019-04-29T21:37:10.167Z,80.50
2019-04-29T21:42:35.353Z,83.33
2019-04-29T21:47:42.663Z,77.33
2019-04-29T21:52:40.808Z,82.60
2019-04-29T21:57:43.651Z,76.73
2019-04-29T22:02:49.086Z,74.87
2019-04-29T22:07:51.196Z,77.83
2019-04-29T22:12:58.288Z,71.37
2019-04-29T22:18:01.390Z,76.67
2019-04-29T22:23:06.436Z,75.47
2019-04-29T22:28:10.712Z,70.20
2019-04-29T22:33:12.592Z,83.27
2019-04-29T22:38:16.706Z,70.43
2019-04-29T22:43:29.613Z,77.10
2019-04-29T22:48:32.351Z,78.87
2019-04-29T22:53:35.848Z,79.53
2019-04-29T22:58:39.581Z,73.10
2019-04-29T23:03:45.123Z,87.60
2019-04-29T23:08:48.104Z,74.10
2019-04-29T23:13:50.808Z,72.37
2019-04-29T23:18:55.269Z,89.37
2019-04-29T23:24:13.161Z,71.97
2019-04-29T23:29:15.558Z,92.30
2019-04-29T23:34:18.590Z,80.17
2019-04-29T23:39:21.333Z,82.17
2019-04-29T23:44:24.051Z,87.10
2019-04-29T23:49:26.775Z,99.50
2019-04-29T23:54:29.560Z,89.50
2019-04-29T23:59:35.187Z,77.97
